This is the latest recevied weather packets stored in our database for station/object IU8HRV-10. If no packets are shown the sender has not sent any weather packets the latest 10 day(s).
| Time | Temp. | Humidity | Pressure | Rain* | Wind** | Luminosity | Snow |
|---|---|---|---|---|---|---|---|
| 1777450338 | 25° C | 31% | 1017 hPa | - | - | - | - |
| 1777449436 | 23.89° C | 32% | 1017 hPa | - | - | - | - |
| 1777448535 | 23.89° C | 33% | 1017 hPa | - | - | - | - |
| 1777447634 | 23.33° C | 33% | 1017 hPa | - | - | - | - |
| 1777446733 | 22.78° C | 34% | 1017 hPa | - | - | - | - |
| 1777445832 | 22.78° C | 34% | 1017 hPa | - | - | - | - |
| 1777444931 | 21.11° C | 37% | 1017 hPa | - | - | - | - |
| 1777444030 | 20° C | 39% | 1017 hPa | - | - | - | - |
| 1777443129 | 18.89° C | 41% | 1017 hPa | - | - | - | - |
| 1777442228 | 18.89° C | 41% | 1017 hPa | - | - | - | - |
| 1777441327 | 18.89° C | 41% | 1017 hPa | - | - | - | - |
| 1777440426 | 18.89° C | 41% | 1017 hPa | - | - | - | - |
| 1777439525 | 18.89° C | 40% | 1017 hPa | - | - | - | - |
| 1777438624 | 18.89° C | 40% | 1017 hPa | - | - | - | - |
| 1777437723 | 18.89° C | 40% | 1016 hPa | - | - | - | - |
| 1777436822 | 19.44° C | 40% | 1016 hPa | - | - | - | - |
| 1777435920 | 18.89° C | 40% | 1016 hPa | - | - | - | - |
| 1777435019 | 19.44° C | 40% | 1016 hPa | - | - | - | - |
| 1777434118 | 20° C | 39% | 1016 hPa | - | - | - | - |
| 1777433217 | 20° C | 39% | 1016 hPa | - | - | - | - |
| 1777432316 | 20° C | 39% | 1016 hPa | - | - | - | - |
| 1777431415 | 20.56° C | 38% | 1016 hPa | - | - | - | - |
| 1777430514 | 21.11° C | 37% | 1016 hPa | - | - | - | - |
| 1777429613 | 22.78° C | 35% | 1017 hPa | - | - | - | - |
| 1777428712 | 23.33° C | 34% | 1016 hPa | - | - | - | - |
* Rain since midnight (hover to see other rain measurements)
** Current wind speed in m/s (hover to see current wind gust speed)